createdAt,value
2022-08-20T00:02:02.744Z,61.15
2022-08-20T00:04:26.845Z,61.12
2022-08-20T00:06:52.844Z,61.00
2022-08-20T00:09:16.904Z,61.38
2022-08-20T00:11:41.017Z,61.45
2022-08-20T00:14:07.821Z,60.73
2022-08-20T00:16:34.443Z,60.81
2022-08-20T00:18:58.491Z,60.73
2022-08-20T00:21:23.276Z,60.83
2022-08-20T00:23:52.180Z,60.11
2022-08-20T00:26:18.014Z,59.57
2022-08-20T00:28:42.215Z,59.51
2022-08-20T00:31:09.705Z,60.19
2022-08-20T00:33:34.547Z,60.52
2022-08-20T00:36:06.476Z,60.82
2022-08-20T00:38:31.619Z,60.13
2022-08-20T00:41:00.929Z,59.51
2022-08-20T00:43:37.335Z,60.06
2022-08-20T00:46:03.708Z,59.68
2022-08-20T00:48:30.609Z,59.81
2022-08-20T00:50:58.034Z,60.25
2022-08-20T00:53:24.851Z,60.23
2022-08-20T00:55:49.030Z,59.93
2022-08-20T00:58:14.530Z,59.96
2022-08-20T01:00:41.063Z,60.79
2022-08-20T01:03:05.482Z,61.36
2022-08-20T01:05:32.926Z,61.44
2022-08-20T01:07:58.398Z,62.04
2022-08-20T01:10:27.838Z,62.53
2022-08-20T01:12:55.578Z,62.62
2022-08-20T01:15:31.190Z,62.45
2022-08-20T01:17:59.106Z,62.18
2022-08-20T01:20:26.313Z,61.78
2022-08-20T01:23:19.599Z,61.50
2022-08-20T01:25:49.922Z,62.00
2022-08-20T01:28:16.184Z,61.21
2022-08-20T01:30:40.549Z,61.67
2022-08-20T01:33:04.918Z,60.97
2022-08-20T01:35:30.073Z,61.41
2022-08-20T01:37:54.505Z,61.44
2022-08-20T01:40:30.702Z,61.50
2022-08-20T01:42:59.671Z,61.28
2022-08-20T01:45:26.866Z,61.08
2022-08-20T01:47:51.883Z,61.11
2022-08-20T01:50:23.105Z,61.57
2022-08-20T01:52:53.210Z,61.75
2022-08-20T01:55:17.421Z,61.91
2022-08-20T01:57:42.243Z,62.11
2022-08-20T02:00:20.178Z,62.58
2022-08-20T02:02:46.473Z,62.12
2022-08-20T02:05:11.455Z,61.89
2022-08-20T02:07:36.112Z,61.87
2022-08-20T02:10:00.902Z,62.01
2022-08-20T02:12:24.866Z,61.85
2022-08-20T02:14:51.468Z,61.95
2022-08-20T02:17:18.338Z,62.08
2022-08-20T02:19:47.184Z,62.06
2022-08-20T02:22:19.556Z,61.72
2022-08-20T02:24:43.992Z,62.00
2022-08-20T02:27:07.951Z,62.17
2022-08-20T02:29:31.985Z,62.73
2022-08-20T02:32:24.902Z,63.27
2022-08-20T02:34:45.384Z,63.70
2022-08-20T02:37:10.119Z,63.15
2022-08-20T02:39:34.679Z,64.51
2022-08-20T02:41:58.999Z,64.90
2022-08-20T02:44:23.277Z,65.03
2022-08-20T02:46:47.676Z,64.87
2022-08-20T02:49:11.726Z,65.17
2022-08-20T02:51:37.308Z,65.45
2022-08-20T02:54:01.781Z,65.58
2022-08-20T02:56:26.363Z,65.37
2022-08-20T02:58:50.519Z,65.61
2022-08-20T03:01:18.405Z,65.27
2022-08-20T03:03:43.561Z,65.87
2022-08-20T03:06:10.062Z,66.01
2022-08-20T03:08:35.508Z,65.76
2022-08-20T03:10:59.547Z,66.26
2022-08-20T03:13:24.343Z,66.21
2022-08-20T03:15:52.499Z,65.73
2022-08-20T03:18:21.222Z,65.60
2022-08-20T03:20:46.755Z,65.31
2022-08-20T03:23:16.880Z,64.97
2022-08-20T03:25:42.513Z,65.21
2022-08-20T03:28:07.317Z,65.76
2022-08-20T03:30:32.118Z,65.44
2022-08-20T03:32:57.589Z,65.30
2022-08-20T03:35:24.242Z,64.64
2022-08-20T03:37:49.004Z,63.97
2022-08-20T03:40:16.628Z,63.55
2022-08-20T03:42:43.078Z,63.33
2022-08-20T03:45:09.352Z,63.07
2022-08-20T03:47:33.875Z,63.51
2022-08-20T03:50:00.988Z,63.71
2022-08-20T03:52:29.522Z,63.28
2022-08-20T03:54:53.849Z,62.66
2022-08-20T03:57:18.108Z,63.42
2022-08-20T03:59:44.594Z,64.36
2022-08-20T04:02:08.716Z,64.35
2022-08-20T04:04:32.948Z,63.81
2022-08-20T04:06:57.016Z,63.64
2022-08-20T04:09:21.211Z,64.02
2022-08-20T04:11:45.432Z,63.52
2022-08-20T04:14:11.155Z,63.72
2022-08-20T04:16:37.735Z,63.89
2022-08-20T04:19:04.060Z,63.49
2022-08-20T04:21:32.791Z,62.36
2022-08-20T04:23:58.894Z,61.78
2022-08-20T04:26:22.937Z,61.26
2022-08-20T04:28:47.381Z,62.34
2022-08-20T04:31:13.821Z,62.11
2022-08-20T04:33:39.319Z,62.06
2022-08-20T04:36:06.193Z,62.07
2022-08-20T04:38:48.012Z,61.26
2022-08-20T04:41:22.424Z,60.28
2022-08-20T04:43:47.343Z,60.29
2022-08-20T04:46:11.636Z,59.92
2022-08-20T04:48:39.240Z,59.78
2022-08-20T04:51:07.160Z,60.80
2022-08-20T04:53:32.487Z,61.06
2022-08-20T04:55:59.572Z,60.21
2022-08-20T04:58:30.386Z,59.42
2022-08-20T05:01:01.137Z,59.13
2022-08-20T05:03:26.945Z,58.44
2022-08-20T05:05:51.360Z,57.40
2022-08-20T05:08:20.263Z,56.14
2022-08-20T05:10:45.176Z,55.51
2022-08-20T05:13:10.258Z,55.73
2022-08-20T05:15:34.892Z,55.49
2022-08-20T05:18:03.555Z,55.54
2022-08-20T05:20:32.242Z,57.33
2022-08-20T05:22:56.327Z,56.87
2022-08-20T05:25:22.097Z,56.44
2022-08-20T05:27:47.907Z,55.93
2022-08-20T05:30:13.635Z,56.05
2022-08-20T05:32:44.633Z,55.69
2022-08-20T05:35:11.479Z,55.25
2022-08-20T05:37:36.112Z,55.42
2022-08-20T05:40:00.373Z,55.05
2022-08-20T05:42:29.776Z,54.50
2022-08-20T05:44:53.952Z,54.37
2022-08-20T05:47:18.480Z,54.39
2022-08-20T05:49:42.891Z,53.62
2022-08-20T05:52:07.281Z,53.42
2022-08-20T05:54:31.393Z,53.78
2022-08-20T05:56:57.874Z,53.29
2022-08-20T06:00:03.473Z,52.80
2022-08-20T06:02:54.388Z,52.72
2022-08-20T06:05:19.935Z,52.05
2022-08-20T06:07:43.925Z,51.72
2022-08-20T06:10:10.868Z,51.47
2022-08-20T06:12:35.011Z,51.17
2022-08-20T06:14:59.044Z,51.83
2022-08-20T06:17:24.413Z,51.01
2022-08-20T06:19:48.774Z,50.48
2022-08-20T06:22:19.338Z,50.08
2022-08-20T06:24:50.619Z,49.95
2022-08-20T06:27:16.083Z,50.68
2022-08-20T06:29:40.258Z,49.77
2022-08-20T06:32:04.744Z,49.06
2022-08-20T06:34:30.914Z,48.47
2022-08-20T06:36:55.986Z,48.64
2022-08-20T06:39:20.545Z,47.99
2022-08-20T06:41:45.286Z,47.76
2022-08-20T06:44:10.326Z,47.64
2022-08-20T06:46:36.311Z,47.63
2022-08-20T06:49:00.945Z,46.68
2022-08-20T06:51:26.777Z,47.24
2022-08-20T06:53:51.217Z,46.97
2022-08-20T06:56:15.564Z,46.29
2022-08-20T06:58:40.007Z,46.14
2022-08-20T07:01:09.615Z,46.76
2022-08-20T07:03:34.632Z,45.88
2022-08-20T07:05:59.629Z,45.37
2022-08-20T07:08:25.456Z,45.46
2022-08-20T07:10:50.411Z,45.93
2022-08-20T07:13:16.452Z,44.97
2022-08-20T07:15:40.520Z,44.42
2022-08-20T07:18:07.543Z,45.00
2022-08-20T07:20:33.430Z,42.87
2022-08-20T07:22:57.625Z,42.50
2022-08-20T07:25:23.753Z,42.77
2022-08-20T07:27:48.632Z,42.64
2022-08-20T07:30:34.917Z,41.07
2022-08-20T07:33:19.277Z,40.70
2022-08-20T07:35:49.242Z,41.86
2022-08-20T07:38:19.581Z,41.14
2022-08-20T07:40:48.911Z,40.12
2022-08-20T07:43:14.272Z,39.79
2022-08-20T07:45:39.164Z,39.68
2022-08-20T07:48:08.381Z,38.56
2022-08-20T07:50:32.831Z,39.68
2022-08-20T07:53:00.539Z,38.40
2022-08-20T07:55:25.049Z,38.57
2022-08-20T07:57:51.811Z,39.68
2022-08-20T08:00:17.703Z,38.60
2022-08-20T08:02:41.905Z,37.60
2022-08-20T08:05:06.758Z,38.51
2022-08-20T08:07:31.380Z,39.40
2022-08-20T08:09:56.624Z,38.58
2022-08-20T08:12:21.487Z,37.39
2022-08-20T08:14:49.483Z,37.03
2022-08-20T08:17:14.019Z,35.63
2022-08-20T08:19:43.797Z,35.95
2022-08-20T08:22:11.626Z,35.53
2022-08-20T08:24:36.021Z,34.26
2022-08-20T08:27:00.141Z,34.72
2022-08-20T08:29:24.193Z,36.52
2022-08-20T08:31:49.794Z,35.90
2022-08-20T08:34:14.167Z,35.61
2022-08-20T08:36:39.433Z,36.30
2022-08-20T08:39:03.605Z,35.26
2022-08-20T08:41:32.037Z,36.34
2022-08-20T08:44:05.775Z,34.93
2022-08-20T08:46:34.190Z,35.07
2022-08-20T08:49:02.937Z,35.60
2022-08-20T08:51:36.695Z,35.56
2022-08-20T08:54:06.602Z,36.16
2022-08-20T08:56:32.265Z,36.78
2022-08-20T08:59:01.710Z,36.84
2022-08-20T09:01:53.780Z,35.80
2022-08-20T09:04:13.621Z,37.04
2022-08-20T09:06:40.445Z,37.24
2022-08-20T09:09:07.372Z,36.99
2022-08-20T09:11:32.777Z,36.44
2022-08-20T09:13:59.793Z,37.78
2022-08-20T09:16:26.059Z,38.43
2022-08-20T09:18:55.070Z,37.83
2022-08-20T09:21:20.873Z,38.16
2022-08-20T09:23:45.405Z,39.45
2022-08-20T09:26:10.006Z,38.21
2022-08-20T09:28:35.235Z,38.64
2022-08-20T09:31:01.408Z,38.99
2022-08-20T09:33:25.558Z,38.57
2022-08-20T09:35:49.834Z,39.43
2022-08-20T09:38:15.465Z,38.06
2022-08-20T09:40:39.961Z,38.76
2022-08-20T09:43:06.554Z,38.19
2022-08-20T09:45:31.862Z,38.95
2022-08-20T09:47:57.218Z,38.86
2022-08-20T09:50:22.147Z,40.44
2022-08-20T09:52:51.174Z,40.83
2022-08-20T09:55:23.047Z,40.81
2022-08-20T09:57:48.159Z,40.73
2022-08-20T10:00:12.996Z,40.54
2022-08-20T10:02:36.984Z,39.70
2022-08-20T10:05:01.157Z,41.00
2022-08-20T10:07:25.161Z,41.15
2022-08-20T10:09:49.430Z,40.70
2022-08-20T10:12:15.399Z,40.58
2022-08-20T10:14:40.463Z,40.14
2022-08-20T10:17:05.498Z,41.21
2022-08-20T10:19:31.384Z,40.65
2022-08-20T10:21:56.500Z,40.18
2022-08-20T10:24:21.010Z,42.00
2022-08-20T10:26:45.356Z,41.95
2022-08-20T10:29:11.114Z,42.05
2022-08-20T10:31:35.630Z,41.69
2022-08-20T10:34:00.125Z,40.48
2022-08-20T10:36:24.313Z,41.23
2022-08-20T10:38:49.287Z,41.05
2022-08-20T10:41:13.794Z,41.65
2022-08-20T10:43:38.208Z,43.02
2022-08-20T10:46:04.237Z,42.55
2022-08-20T10:48:29.049Z,42.72
2022-08-20T10:50:53.257Z,41.27
2022-08-20T10:53:17.740Z,41.20
2022-08-20T10:55:42.848Z,41.59
2022-08-20T10:58:08.077Z,43.45
2022-08-20T11:00:36.168Z,42.32
2022-08-20T11:03:02.479Z,41.92
2022-08-20T11:05:26.872Z,42.36
2022-08-20T11:07:56.238Z,42.08
2022-08-20T11:10:21.368Z,43.03
2022-08-20T11:12:46.347Z,43.31
2022-08-20T11:15:11.984Z,41.52
2022-08-20T11:17:38.359Z,41.61
2022-08-20T11:20:06.370Z,43.57
2022-08-20T11:22:30.543Z,42.84
2022-08-20T11:24:55.646Z,43.52
2022-08-20T11:27:24.647Z,42.53
2022-08-20T11:29:48.799Z,42.14
2022-08-20T11:32:13.327Z,41.23
2022-08-20T11:34:37.541Z,41.32
2022-08-20T11:37:03.254Z,40.87
2022-08-20T11:39:28.257Z,40.38
2022-08-20T11:41:55.438Z,40.43
2022-08-20T11:44:20.669Z,40.20
2022-08-20T11:46:46.017Z,40.78
2022-08-20T11:49:11.988Z,41.67
2022-08-20T11:51:48.967Z,40.59
2022-08-20T11:54:15.662Z,41.15
2022-08-20T11:56:39.793Z,41.00
2022-08-20T11:59:10.451Z,42.15
2022-08-20T12:01:36.330Z,41.34
2022-08-20T12:04:00.532Z,41.16
2022-08-20T12:06:24.736Z,41.59
2022-08-20T12:08:49.386Z,42.63
2022-08-20T12:11:15.196Z,43.10
2022-08-20T12:13:48.971Z,43.17
2022-08-20T12:16:13.684Z,43.10
2022-08-20T12:18:38.095Z,41.37
2022-08-20T12:21:02.234Z,41.38
2022-08-20T12:23:26.769Z,41.87
2022-08-20T12:25:51.384Z,41.84
2022-08-20T12:28:17.045Z,42.14
2022-08-20T12:30:47.640Z,41.54
2022-08-20T12:33:11.828Z,42.65
2022-08-20T12:35:36.116Z,42.11
2022-08-20T12:38:03.266Z,41.86
2022-08-20T12:40:32.129Z,44.63
2022-08-20T12:42:57.385Z,43.09
2022-08-20T12:45:23.587Z,42.15
2022-08-20T12:47:49.755Z,43.27
2022-08-20T12:50:16.889Z,43.69
2022-08-20T12:52:41.493Z,42.83
2022-08-20T12:55:07.751Z,42.98
2022-08-20T12:57:34.398Z,42.51
2022-08-20T12:59:59.568Z,44.38
2022-08-20T13:02:25.055Z,44.69
2022-08-20T13:04:49.024Z,44.02
2022-08-20T13:07:14.493Z,42.35
2022-08-20T13:09:40.320Z,42.55
2022-08-20T13:12:05.801Z,43.28
2022-08-20T13:14:30.252Z,42.43
2022-08-20T13:16:58.930Z,44.05
2022-08-20T13:19:27.232Z,45.29
2022-08-20T13:21:55.062Z,45.16
2022-08-20T13:24:19.260Z,45.63
2022-08-20T13:26:43.371Z,44.96
2022-08-20T13:29:07.614Z,45.26
2022-08-20T13:31:31.665Z,45.35
2022-08-20T13:33:56.885Z,44.02
2022-08-20T13:36:22.714Z,43.93
2022-08-20T13:38:46.785Z,43.98
2022-08-20T13:41:10.766Z,42.61
2022-08-20T13:43:35.038Z,42.97
2022-08-20T13:45:59.190Z,43.57
2022-08-20T13:48:23.345Z,43.86
2022-08-20T13:50:47.666Z,42.01
2022-08-20T13:53:13.113Z,43.13
2022-08-20T13:55:39.179Z,45.38
2022-08-20T13:58:06.717Z,42.52
2022-08-20T14:00:33.279Z,43.27
2022-08-20T14:02:57.531Z,45.11
2022-08-20T14:05:22.185Z,43.72
2022-08-20T14:07:46.731Z,42.25
2022-08-20T14:10:15.220Z,42.09
2022-08-20T14:12:39.953Z,43.32
2022-08-20T14:15:04.320Z,38.24
2022-08-20T14:17:30.352Z,41.49
2022-08-20T14:20:01.444Z,44.19
2022-08-20T14:22:27.935Z,44.48
2022-08-20T14:24:52.254Z,44.65
2022-08-20T14:27:21.393Z,44.25
2022-08-20T14:29:47.131Z,43.50
2022-08-20T14:32:11.912Z,43.88
2022-08-20T14:34:36.360Z,45.03
2022-08-20T14:37:11.487Z,46.95
2022-08-20T14:39:35.708Z,47.20
2022-08-20T14:41:59.785Z,45.54
2022-08-20T14:44:25.167Z,46.14
2022-08-20T14:46:49.173Z,45.41
2022-08-20T14:49:13.328Z,46.00
2022-08-20T14:51:38.854Z,45.76
2022-08-20T14:54:02.853Z,45.62
2022-08-20T14:56:27.185Z,46.63
2022-08-20T14:58:51.673Z,46.77
2022-08-20T15:01:17.141Z,47.80
2022-08-20T15:03:41.272Z,49.07
2022-08-20T15:06:10.891Z,48.60
2022-08-20T15:08:47.054Z,47.63
2022-08-20T15:11:11.372Z,48.50
2022-08-20T15:13:35.500Z,48.85
2022-08-20T15:15:59.820Z,46.06
2022-08-20T15:18:25.285Z,47.92
2022-08-20T15:20:49.354Z,48.35
2022-08-20T15:23:13.423Z,48.21
2022-08-20T15:25:38.288Z,49.10
2022-08-20T15:28:04.646Z,49.55
2022-08-20T15:30:31.271Z,49.92
2022-08-20T15:32:56.430Z,49.26
2022-08-20T15:35:23.620Z,49.85
2022-08-20T15:37:50.503Z,49.69
2022-08-20T15:40:17.987Z,47.61
2022-08-20T15:42:41.947Z,50.19
2022-08-20T15:45:08.922Z,49.60
2022-08-20T15:47:37.961Z,50.78
2022-08-20T15:50:04.966Z,51.23
2022-08-20T15:52:43.397Z,51.79
2022-08-20T15:55:11.537Z,52.82
2022-08-20T15:57:50.255Z,51.95
2022-08-20T16:00:17.242Z,50.90
2022-08-20T16:03:08.348Z,52.71
2022-08-20T16:05:44.301Z,51.89
2022-08-20T16:08:23.238Z,52.12
2022-08-20T16:11:01.181Z,51.25
2022-08-20T16:13:32.591Z,51.64
2022-08-20T16:16:00.816Z,52.36
2022-08-20T16:18:28.877Z,54.54
2022-08-20T16:20:54.988Z,55.62
2022-08-20T16:23:22.615Z,54.29
2022-08-20T16:26:02.495Z,54.69
2022-08-20T16:28:32.173Z,55.62
2022-08-20T16:31:03.803Z,55.51
2022-08-20T16:33:32.843Z,55.90
2022-08-20T16:36:03.884Z,55.24
2022-08-20T16:38:40.336Z,57.45
2022-08-20T16:41:13.878Z,58.21
2022-08-20T16:43:44.392Z,59.11
2022-08-20T16:46:16.845Z,57.45
2022-08-20T16:48:48.213Z,58.13
2022-08-20T16:51:18.588Z,59.08
2022-08-20T16:53:44.164Z,57.96
2022-08-20T16:56:08.565Z,59.89
2022-08-20T16:58:33.107Z,59.08
2022-08-20T17:01:08.572Z,58.87
2022-08-20T17:03:39.452Z,59.90
2022-08-20T17:06:16.642Z,60.94
2022-08-20T17:08:50.378Z,61.73
2022-08-20T17:11:17.252Z,59.80
2022-08-20T17:13:43.768Z,59.82
2022-08-20T17:16:17.851Z,59.15
2022-08-20T17:18:44.620Z,59.40
2022-08-20T17:21:16.794Z,58.20
2022-08-20T17:23:56.062Z,58.50
2022-08-20T17:26:26.314Z,59.00
2022-08-20T17:28:51.130Z,59.26
2022-08-20T17:31:21.392Z,59.75
2022-08-20T17:34:00.000Z,60.04
2022-08-20T17:36:26.271Z,61.21
2022-08-20T17:38:53.148Z,60.66
2022-08-20T17:41:22.883Z,62.11
2022-08-20T17:43:47.048Z,62.48
2022-08-20T17:46:16.354Z,61.41
2022-08-20T17:48:45.269Z,61.03
2022-08-20T17:51:20.243Z,60.54
2022-08-20T17:53:47.782Z,61.14
2022-08-20T17:56:19.656Z,60.78
2022-08-20T17:58:54.266Z,62.15
2022-08-20T18:01:21.467Z,62.94
2022-08-20T18:03:45.463Z,63.34
2022-08-20T18:06:17.434Z,63.35
2022-08-20T18:08:54.513Z,63.43
2022-08-20T18:11:26.319Z,63.50
2022-08-20T18:14:04.736Z,64.27
2022-08-20T18:16:35.591Z,64.01
2022-08-20T18:19:10.428Z,64.32
2022-08-20T18:22:00.523Z,64.38
2022-08-20T18:24:28.949Z,63.57
2022-08-20T18:26:58.147Z,64.59
2022-08-20T18:29:29.090Z,66.10
2022-08-20T18:31:55.863Z,66.52
2022-08-20T18:34:23.440Z,67.20
2022-08-20T18:36:57.352Z,66.39
2022-08-20T18:39:28.987Z,67.84
2022-08-20T18:42:00.385Z,67.88
2022-08-20T18:44:35.625Z,67.82
2022-08-20T18:47:04.279Z,67.77
2022-08-20T18:49:31.839Z,67.76
2022-08-20T18:51:56.231Z,68.13
2022-08-20T18:54:26.768Z,67.90
2022-08-20T18:57:02.533Z,67.91
2022-08-20T18:59:26.675Z,68.12
2022-08-20T19:01:52.250Z,66.65
2022-08-20T19:04:27.277Z,67.49
2022-08-20T19:06:57.693Z,69.18
2022-08-20T19:09:36.936Z,68.65
2022-08-20T19:12:12.868Z,69.83
2022-08-20T19:14:56.485Z,70.60
2022-08-20T19:17:33.151Z,70.00
2022-08-20T19:20:03.295Z,70.00
2022-08-20T19:22:28.083Z,69.77
2022-08-20T19:24:58.719Z,70.17
2022-08-20T19:27:22.999Z,70.09
2022-08-20T19:29:50.340Z,70.25
2022-08-20T19:32:24.798Z,70.43
2022-08-20T19:34:54.813Z,69.82
2022-08-20T19:37:35.274Z,70.50
2022-08-20T19:40:06.618Z,70.09
2022-08-20T19:42:33.428Z,70.07
2022-08-20T19:45:00.845Z,70.28
2022-08-20T19:47:32.736Z,70.87
2022-08-20T19:50:09.936Z,70.49
2022-08-20T19:52:44.020Z,71.04
2022-08-20T19:55:19.608Z,71.74
2022-08-20T19:57:51.172Z,71.65
2022-08-20T20:00:17.483Z,71.56
2022-08-20T20:02:42.945Z,70.91
2022-08-20T20:05:08.684Z,70.79
2022-08-20T20:07:39.962Z,71.13
2022-08-20T20:10:07.600Z,71.36
2022-08-20T20:12:33.857Z,71.20
2022-08-20T20:14:58.047Z,71.78
2022-08-20T20:17:25.711Z,71.96
2022-08-20T20:19:56.792Z,70.89
2022-08-20T20:22:28.427Z,73.10
2022-08-20T20:25:01.634Z,73.81
2022-08-20T20:27:28.958Z,74.16
2022-08-20T20:30:00.096Z,75.26
2022-08-20T20:32:26.367Z,75.19
2022-08-20T20:34:57.256Z,73.86
2022-08-20T20:37:49.358Z,72.28
2022-08-20T20:40:23.079Z,72.94
2022-08-20T20:42:59.203Z,73.54
2022-08-20T20:45:30.280Z,74.16
2022-08-20T20:47:55.044Z,73.55
2022-08-20T20:50:31.024Z,73.43
2022-08-20T20:52:56.484Z,74.15
2022-08-20T20:55:26.925Z,74.48
2022-08-20T20:57:51.400Z,74.29
2022-08-20T21:00:18.363Z,73.38
2022-08-20T21:02:43.411Z,73.72
2022-08-20T21:05:07.733Z,74.20
2022-08-20T21:07:33.267Z,73.43
2022-08-20T21:09:58.205Z,73.27
2022-08-20T21:12:22.449Z,72.97
2022-08-20T21:14:46.703Z,73.74
2022-08-20T21:17:14.971Z,73.56
2022-08-20T21:19:42.339Z,72.90
2022-08-20T21:22:09.670Z,74.03
2022-08-20T21:24:35.154Z,75.22
2022-08-20T21:27:01.604Z,75.83
2022-08-20T21:29:32.503Z,75.75
2022-08-20T21:31:57.659Z,75.37
2022-08-20T21:34:22.248Z,75.85
2022-08-20T21:36:46.574Z,75.88
2022-08-20T21:39:11.602Z,76.65
2022-08-20T21:41:37.811Z,75.68
2022-08-20T21:44:05.707Z,75.20
2022-08-20T21:46:29.822Z,76.74
2022-08-20T21:48:53.867Z,77.37
2022-08-20T21:51:18.018Z,78.54
2022-08-20T21:53:42.111Z,78.20
2022-08-20T21:56:06.909Z,78.10
2022-08-20T21:58:32.643Z,78.86
2022-08-20T22:00:59.470Z,79.26
2022-08-20T22:03:25.270Z,80.07
2022-08-20T22:05:50.323Z,80.47
2022-08-20T22:08:14.975Z,80.73
2022-08-20T22:10:39.056Z,80.01
2022-08-20T22:13:03.882Z,79.85
2022-08-20T22:15:29.283Z,80.36
2022-08-20T22:17:53.403Z,80.01
2022-08-20T22:20:17.648Z,79.62
2022-08-20T22:22:41.648Z,79.58
2022-08-20T22:25:12.248Z,79.40
2022-08-20T22:27:37.776Z,79.92
2022-08-20T22:30:01.757Z,79.84
2022-08-20T22:32:30.808Z,81.32
2022-08-20T22:35:12.753Z,82.96
2022-08-20T22:37:37.603Z,82.75
2022-08-20T22:40:01.725Z,81.99
2022-08-20T22:42:27.222Z,80.77
2022-08-20T22:44:53.837Z,81.33
2022-08-20T22:47:24.635Z,81.29
2022-08-20T22:49:50.294Z,80.83
2022-08-20T22:52:14.481Z,81.31
2022-08-20T22:54:39.010Z,81.64
2022-08-20T22:57:08.815Z,80.52
2022-08-20T22:59:33.229Z,80.36
2022-08-20T23:02:09.899Z,80.41
2022-08-20T23:04:36.513Z,79.94
2022-08-20T23:07:03.771Z,80.37
2022-08-20T23:09:30.283Z,79.32
2022-08-20T23:11:55.029Z,78.36
2022-08-20T23:14:19.206Z,78.84
2022-08-20T23:16:45.730Z,79.82
2022-08-20T23:19:12.389Z,81.10
2022-08-20T23:21:36.302Z,82.80
2022-08-20T23:24:01.728Z,83.55
2022-08-20T23:26:26.065Z,83.75
2022-08-20T23:28:50.690Z,83.62
2022-08-20T23:31:14.627Z,81.49
2022-08-20T23:33:41.839Z,80.87
2022-08-20T23:36:11.749Z,80.10
2022-08-20T23:38:35.833Z,79.23
2022-08-20T23:41:01.244Z,79.23
2022-08-20T23:43:25.299Z,80.99
2022-08-20T23:45:49.326Z,80.17
2022-08-20T23:48:13.760Z,79.54
2022-08-20T23:50:38.489Z,78.96
2022-08-20T23:53:02.651Z,78.92
2022-08-20T23:55:27.513Z,79.70
2022-08-20T23:57:53.574Z,80.40
